Time;durP1;ratioP1;P1;durP2;ratioP2;P2;SDS_P1;SDS_P2;PMS_P1;PMS_P2;Temp;Humidity;BMP_temperature;BMP_pressure;BME280_temperature;BME280_humidity;BME280_pressure;Samples;Min_cycle;Max_cycle;Signal;HPM_P1;HPM_P2
2022/03/06 00:01:03;;;;;;;0.00;0.00;;;1.10;99.90;;;;;;5085284;28;20140;-64
2022/03/06 00:03:29;;;;;;;0.00;0.00;;;1.20;99.90;;;;;;5097215;28;20127;-66
2022/03/06 00:05:55;;;;;;;0.00;0.00;;;1.20;99.90;;;;;;5085119;28;20749;-63
2022/03/06 00:08:21;;;;;;;0.00;0.00;;;1.20;99.90;;;;;;5085161;28;20048;-64
2022/03/06 00:10:47;;;;;;;0.00;0.00;;;1.20;99.90;;;;;;5066505;28;20380;-64
2022/03/06 00:13:14;;;;;;;0.00;0.00;;;2.40;99.90;;;;;;5084696;28;20044;-63
2022/03/06 00:15:41;;;;;;;0.00;0.00;;;1.90;99.90;;;;;;5084884;28;20046;-62
2022/03/06 00:18:06;;;;;;;0.00;0.00;;;1.30;99.90;;;;;;5084702;28;20688;-65
2022/03/06 00:20:32;;;;;;;0.00;0.00;;;2.10;99.90;;;;;;5085055;28;20086;-64
2022/03/06 00:22:58;;;;;;;0.00;0.00;;;1.60;99.90;;;;;;5084390;28;20127;-63
2022/03/06 00:25:23;;;;;;;0.00;0.00;;;1.30;99.90;;;;;;5066511;28;20139;-63
2022/03/06 00:27:49;;;;;;;0.00;0.00;;;1.30;99.90;;;;;;5084218;28;20063;-63
2022/03/06 00:30:15;;;;;;;0.00;0.00;;;1.30;99.90;;;;;;5084477;28;20082;-63
2022/03/06 00:32:41;;;;;;;0.00;0.00;;;1.30;99.90;;;;;;5083853;28;20416;-64
2022/03/06 00:35:08;;;;;;;0.00;0.00;;;1.30;99.90;;;;;;5084849;28;20043;-64
2022/03/06 00:37:33;;;;;;;0.00;0.00;;;1.30;99.90;;;;;;5066412;28;20123;-64
2022/03/06 00:39:59;;;;;;;0.00;0.00;;;1.30;99.90;;;;;;5084491;28;20170;-63
2022/03/06 00:42:25;;;;;;;0.00;0.00;;;1.30;99.90;;;;;;5084418;28;20682;-64
2022/03/06 00:44:52;;;;;;;0.00;0.00;;;1.30;99.90;;;;;;5065941;28;20040;-64
2022/03/06 00:47:18;;;;;;;0.00;0.00;;;1.30;99.90;;;;;;5083133;28;20047;-63
2022/03/06 00:49:43;;;;;;;0.00;0.00;;;1.30;99.90;;;;;;5084112;28;20028;-62
2022/03/06 00:52:09;;;;;;;0.00;0.00;;;1.40;99.90;;;;;;5084352;28;20071;-63
2022/03/06 00:54:35;;;;;;;0.00;0.00;;;0.20;99.90;;;;;;5083795;28;20120;-63
2022/03/06 00:57:01;;;;;;;0.00;0.00;;;1.30;99.90;;;;;;5083773;28;20047;-64
2022/03/06 00:59:32;;;;;;;0.00;0.00;;;1.30;99.90;;;;;;5084337;28;20435;-63
2022/03/06 01:02:02;;;;;;;0.00;0.00;;;1.30;99.90;;;;;;5086096;28;20079;-63
2022/03/06 01:04:28;;;;;;;0.00;0.00;;;1.30;99.90;;;;;;5091759;28;20059;-63
2022/03/06 01:06:54;;;;;;;0.00;0.00;;;1.30;99.90;;;;;;5083641;28;20203;-64
2022/03/06 01:09:19;;;;;;;0.00;0.00;;;1.30;99.90;;;;;;5084324;28;20044;-64
2022/03/06 01:11:45;;;;;;;0.00;0.00;;;1.30;99.90;;;;;;5083074;28;20101;-64
2022/03/06 01:14:11;;;;;;;0.00;0.00;;;1.30;99.90;;;;;;5083105;28;20411;-64
2022/03/06 01:16:36;;;;;;;0.00;0.00;;;1.30;99.90;;;;;;5083013;28;20047;-65
2022/03/06 01:19:02;;;;;;;0.00;0.00;;;1.30;99.90;;;;;;5065625;28;20135;-64
2022/03/06 01:21:28;;;;;;;0.00;0.00;;;1.30;99.90;;;;;;5083945;28;20044;-65
2022/03/06 01:23:54;;;;;;;0.00;0.00;;;1.30;99.90;;;;;;5083520;28;20047;-64
2022/03/06 01:26:19;;;;;;;0.00;0.00;;;1.30;99.90;;;;;;5083634;28;20133;-64
2022/03/06 01:28:45;;;;;;;0.00;0.00;;;1.30;99.90;;;;;;5083063;28;20046;-64
2022/03/06 01:31:11;;;;;;;0.00;0.00;;;1.30;99.90;;;;;;5083832;28;20079;-65
2022/03/06 01:33:37;;;;;;;0.00;0.00;;;1.30;99.90;;;;;;5083016;28;20123;-64
2022/03/06 01:36:03;;;;;;;0.00;0.00;;;1.30;99.90;;;;;;5083315;28;20137;-64
2022/03/06 01:38:29;;;;;;;0.00;0.00;;;1.30;99.90;;;;;;5065134;28;20611;-64
2022/03/06 01:40:55;;;;;;;0.00;0.00;;;1.30;99.90;;;;;;5082988;28;20044;-64
2022/03/06 01:43:21;;;;;;;0.00;0.00;;;1.30;99.90;;;;;;5065248;28;20508;-66
2022/03/06 01:45:46;;;;;;;0.00;0.00;;;1.30;99.90;;;;;;5082699;28;20044;-63
2022/03/06 01:48:12;;;;;;;0.00;0.00;;;1.30;99.90;;;;;;5082694;28;20051;-63
2022/03/06 01:50:38;;;;;;;0.00;0.00;;;1.30;99.90;;;;;;5083196;28;20036;-64
2022/03/06 01:53:08;;;;;;;0.00;0.00;;;1.20;99.90;;;;;;5083165;28;20762;-64
2022/03/06 01:55:35;;;;;;;0.00;0.00;;;1.40;99.90;;;;;;5083338;28;20064;-64
2022/03/06 01:58:03;;;;;;;0.00;0.00;;;1.80;99.90;;;;;;5082982;28;20052;-63
2022/03/06 02:00:44;;;;;;;0.00;0.00;;;1.30;99.90;;;;;;5082952;28;20040;-64
2022/03/06 02:03:10;;;;;;;0.00;0.00;;;1.30;99.90;;;;;;5059879;22;20148;-63
2022/03/06 02:05:36;;;;;;;0.00;0.00;;;3.10;99.90;;;;;;5043034;28;20090;-63
2022/03/06 02:08:02;;;;;;;0.00;0.00;;;1.30;99.90;;;;;;5029835;28;20076;-63
2022/03/06 02:10:28;;;;;;;0.00;0.00;;;1.30;99.90;;;;;;5005341;28;20045;-64
2022/03/06 02:12:53;;;;;;;0.00;0.00;;;1.30;99.90;;;;;;5022718;28;20048;-63
2022/03/06 02:15:19;;;;;;;0.00;0.00;;;1.30;99.90;;;;;;5023259;28;20391;-63
2022/03/06 02:17:46;;;;;;;0.00;0.00;;;1.30;99.90;;;;;;5021927;28;20128;-63
2022/03/06 02:20:14;;;;;;;0.47;0.43;;;1.30;99.90;;;;;;5023468;28;20209;-64
2022/03/06 02:22:43;;;;;;;0.00;0.00;;;1.30;99.90;;;;;;5022602;28;20043;-63
2022/03/06 02:25:14;;;;;;;0.00;0.00;;;1.40;99.90;;;;;;5023990;28;20128;-64
2022/03/06 02:27:39;;;;;;;0.00;0.00;;;1.40;99.90;;;;;;5027013;28;20538;-63
2022/03/06 02:30:07;;;;;;;0.00;0.00;;;1.40;99.90;;;;;;5027287;28;20045;-63
2022/03/06 02:32:34;;;;;;;0.00;0.00;;;2.20;99.90;;;;;;5026743;28;20038;-64
2022/03/06 02:35:00;;;;;;;0.00;0.00;;;1.40;99.90;;;;;;5027119;28;20059;-64
2022/03/06 02:37:26;;;;;;;0.00;0.00;;;1.40;99.90;;;;;;5027328;28;20054;-63
2022/03/06 02:39:51;;;;;;;0.00;0.00;;;1.40;99.90;;;;;;5026400;28;20045;-63
2022/03/06 02:42:31;;;;;;;0.00;0.00;;;1.40;99.90;;;;;;5027036;28;20187;-65
2022/03/06 02:44:59;;;;;;;0.00;0.00;;;1.40;99.90;;;;;;5026628;28;20038;-63
2022/03/06 02:47:26;;;;;;;0.00;0.00;;;1.40;99.90;;;;;;5025874;28;20050;-62
2022/03/06 02:49:52;;;;;;;0.00;0.00;;;1.30;99.90;;;;;;5026645;28;20087;-64
2022/03/06 02:52:18;;;;;;;0.00;0.00;;;1.40;99.90;;;;;;5027119;28;20132;-63
2022/03/06 02:54:44;;;;;;;0.00;0.00;;;1.40;99.90;;;;;;5024734;28;20068;-62
2022/03/06 02:57:10;;;;;;;0.00;0.00;;;1.30;99.90;;;;;;5026353;28;20061;-65
2022/03/06 02:59:36;;;;;;;0.00;0.00;;;1.30;99.90;;;;;;5026344;28;20530;-63
2022/03/06 03:02:02;;;;;;;0.00;0.00;;;1.30;99.90;;;;;;5031956;28;20062;-62
2022/03/06 03:04:28;;;;;;;0.00;0.00;;;1.30;99.90;;;;;;5033330;28;20049;-62
2022/03/06 03:06:53;;;;;;;0.00;0.00;;;1.30;99.90;;;;;;5026126;28;20038;-62
2022/03/06 03:09:20;;;;;;;0.00;0.00;;;1.30;99.90;;;;;;5026531;28;20053;-62
2022/03/06 03:11:50;;;;;;;0.00;0.00;;;1.30;99.90;;;;;;5025639;28;20041;-62
2022/03/06 03:14:16;;;;;;;0.00;0.00;;;1.30;99.90;;;;;;5026247;28;20046;-63
2022/03/06 03:16:42;;;;;;;0.00;0.00;;;1.30;99.90;;;;;;5024968;28;20640;-62
2022/03/06 03:19:08;;;;;;;0.00;0.00;;;1.30;99.90;;;;;;5026296;28;20120;-63
2022/03/06 03:21:33;;;;;;;0.00;0.00;;;1.30;99.90;;;;;;5026541;28;20049;-63
2022/03/06 03:23:59;;;;;;;0.00;0.00;;;1.20;99.90;;;;;;5025776;28;20211;-64
2022/03/06 03:26:25;;;;;;;0.00;0.00;;;1.30;99.90;;;;;;5026235;28;20076;-64
2022/03/06 03:28:51;;;;;;;0.00;0.00;;;1.20;99.90;;;;;;5023966;28;20045;-63
2022/03/06 03:31:17;;;;;;;0.00;0.00;;;1.20;99.90;;;;;;5025478;28;20053;-63
2022/03/06 03:33:42;;;;;;;0.00;0.00;;;1.20;99.90;;;;;;5025783;28;20042;-65
2022/03/06 03:36:08;;;;;;;0.00;0.00;;;1.20;99.90;;;;;;5025129;28;20417;-65
2022/03/06 03:38:34;;;;;;;0.00;0.00;;;1.10;99.90;;;;;;5025703;28;20046;-65
2022/03/06 03:41:01;;;;;;;0.00;0.00;;;1.20;99.90;;;;;;5025757;28;20073;-63
2022/03/06 03:43:28;;;;;;;0.00;0.00;;;1.20;99.90;;;;;;5024576;28;20057;-63
2022/03/06 03:45:53;;;;;;;0.00;0.00;;;1.10;99.90;;;;;;5024713;28;20045;-63
2022/03/06 03:48:19;;;;;;;0.00;0.00;;;1.10;99.90;;;;;;5025234;28;20123;-64
2022/03/06 03:50:45;;;;;;;0.00;0.00;;;1.00;99.90;;;;;;5025532;28;20526;-63
2022/03/06 03:53:10;;;;;;;0.00;0.00;;;1.10;99.90;;;;;;5025074;28;20049;-63
2022/03/06 03:55:36;;;;;;;0.00;0.00;;;1.00;99.90;;;;;;5024007;28;20048;-64
2022/03/06 03:58:02;;;;;;;0.00;0.00;;;1.00;99.90;;;;;;5025442;28;20053;-63
2022/03/06 04:00:28;;;;;;;0.00;0.00;;;0.90;99.90;;;;;;5025370;28;20507;-63
2022/03/06 04:02:54;;;;;;;0.00;0.00;;;0.90;99.90;;;;;;5034818;28;20504;-63
2022/03/06 04:05:20;;;;;;;0.00;0.00;;;0.90;99.90;;;;;;5025417;28;20045;-63
2022/03/06 04:07:46;;;;;;;0.65;0.65;;;0.90;99.90;;;;;;5025043;28;20104;-63
2022/03/06 04:10:11;;;;;;;0.00;0.00;;;0.90;99.90;;;;;;5025015;28;20041;-63
2022/03/06 04:12:37;;;;;;;0.00;0.00;;;0.90;99.90;;;;;;5040435;28;20492;-63
2022/03/06 04:15:03;;;;;;;0.00;0.00;;;0.90;99.90;;;;;;5025205;28;20112;-63
2022/03/06 04:17:28;;;;;;;0.00;0.00;;;0.80;99.90;;;;;;5024839;28;20179;-63
2022/03/06 04:19:54;;;;;;;0.00;0.00;;;0.80;99.90;;;;;;5024440;28;20045;-63
2022/03/06 04:22:20;;;;;;;0.00;0.00;;;0.80;99.90;;;;;;5025190;28;20113;-63
2022/03/06 04:24:45;;;;;;;0.00;0.00;;;0.80;99.90;;;;;;5024505;28;20056;-63
2022/03/06 04:27:11;;;;;;;0.00;0.00;;;0.70;99.90;;;;;;5024891;28;20059;-65
2022/03/06 04:29:37;;;;;;;0.00;0.00;;;1.00;99.90;;;;;;5040206;28;20301;-63
2022/03/06 04:32:03;;;;;;;0.00;0.00;;;0.70;99.90;;;;;;5024478;28;20087;-64
2022/03/06 04:34:29;;;;;;;0.00;0.00;;;0.70;99.90;;;;;;5025189;28;20048;-63
2022/03/06 04:36:54;;;;;;;0.00;0.00;;;0.70;99.90;;;;;;5023752;28;20045;-63
2022/03/06 04:39:20;;;;;;;0.00;0.00;;;0.70;99.90;;;;;;5024977;28;20516;-65
2022/03/06 04:41:46;;;;;;;0.00;0.00;;;0.70;99.90;;;;;;5024128;28;20042;-65
2022/03/06 04:44:13;;;;;;;0.00;0.00;;;0.60;99.90;;;;;;5024168;28;20085;-63
2022/03/06 04:46:39;;;;;;;0.00;0.00;;;0.60;99.90;;;;;;5022569;28;20103;-61
2022/03/06 04:49:05;;;;;;;0.00;0.00;;;0.60;99.90;;;;;;5024900;28;20045;-64
2022/03/06 04:51:30;;;;;;;0.00;0.00;;;0.60;99.90;;;;;;5024953;28;20045;-63
2022/03/06 04:53:56;;;;;;;0.00;0.00;;;1.30;99.90;;;;;;5023703;28;20046;-63
2022/03/06 04:56:23;;;;;;;0.00;0.00;;;0.60;99.90;;;;;;5024268;28;20042;-63
2022/03/06 04:58:49;;;;;;;0.00;0.00;;;0.60;99.90;;;;;;5023807;28;20049;-63
2022/03/06 05:01:14;;;;;;;0.00;0.00;;;0.60;99.90;;;;;;5025194;28;20107;-63
2022/03/06 05:03:40;;;;;;;0.00;0.00;;;1.30;99.90;;;;;;5033379;28;20085;-63
2022/03/06 05:06:06;;;;;;;0.00;0.00;;;0.60;99.90;;;;;;5024124;28;20042;-63
2022/03/06 05:08:31;;;;;;;0.00;0.00;;;0.60;99.90;;;;;;5024384;28;20049;-63
2022/03/06 05:10:57;;;;;;;0.00;0.00;;;0.50;99.90;;;;;;5023259;28;20434;-63
2022/03/06 05:13:24;;;;;;;0.00;0.00;;;0.50;99.90;;;;;;5024009;28;20187;-63
2022/03/06 05:15:50;;;;;;;0.00;0.00;;;0.50;99.90;;;;;;5023386;28;20897;-61
2022/03/06 05:18:15;;;;;;;0.00;0.00;;;0.50;99.90;;;;;;5023573;28;20052;-63
2022/03/06 05:20:41;;;;;;;0.00;0.00;;;0.50;99.90;;;;;;5023498;28;20053;-63
2022/03/06 05:23:07;;;;;;;0.00;0.00;;;0.50;99.90;;;;;;5023899;28;20061;-63
2022/03/06 05:25:32;;;;;;;0.00;0.00;;;0.50;99.90;;;;;;5024031;28;20045;-63
2022/03/06 05:27:58;;;;;;;0.00;0.00;;;0.70;99.90;;;;;;5023042;28;20053;-63
2022/03/06 05:30:24;;;;;;;0.00;0.00;;;0.40;99.90;;;;;;5023856;28;20057;-63
2022/03/06 05:32:49;;;;;;;0.00;0.00;;;-0.10;99.90;;;;;;5022971;28;20472;-62
2022/03/06 05:35:15;;;;;;;0.00;0.00;;;0.30;99.90;;;;;;5022529;28;20045;-63
2022/03/06 05:37:41;;;;;;;0.00;0.00;;;0.40;99.90;;;;;;5023384;28;20048;-63
2022/03/06 05:40:07;;;;;;;0.00;0.00;;;1.70;99.90;;;;;;5023717;28;20046;-63
2022/03/06 05:42:34;;;;;;;0.00;0.00;;;0.40;99.90;;;;;;5023862;28;20400;-63
2022/03/06 05:44:59;;;;;;;0.00;0.00;;;0.30;99.90;;;;;;5023090;28;20046;-63
2022/03/06 05:47:25;;;;;;;0.00;0.00;;;0.20;99.90;;;;;;5022978;28;20058;-65
2022/03/06 05:49:51;;;;;;;0.00;0.00;;;0.30;99.90;;;;;;5023278;28;20042;-64
2022/03/06 05:52:16;;;;;;;0.00;0.00;;;0.30;99.90;;;;;;5021780;28;20057;-65
2022/03/06 05:54:43;;;;;;;0.00;0.00;;;0.30;99.90;;;;;;5023007;28;20527;-65
2022/03/06 05:57:09;;;;;;;0.00;0.00;;;0.30;99.90;;;;;;5022942;28;20561;-65
2022/03/06 05:59:34;;;;;;;0.00;0.00;;;0.30;99.90;;;;;;5023211;28;20049;-65
2022/03/06 06:02:00;;;;;;;0.00;0.00;;;0.20;99.90;;;;;;5026041;28;20056;-65
2022/03/06 06:04:26;;;;;;;0.00;0.00;;;0.20;99.90;;;;;;5030854;28;20060;-65
2022/03/06 06:06:52;;;;;;;0.00;0.00;;;0.20;99.90;;;;;;5022755;28;20085;-65
2022/03/06 06:09:18;;;;;;;0.00;0.00;;;0.20;99.90;;;;;;5021464;28;20480;-65
2022/03/06 06:11:43;;;;;;;0.00;0.00;;;0.10;99.90;;;;;;5022770;28;20128;-65
2022/03/06 06:14:10;;;;;;;0.00;0.00;;;0.10;99.90;;;;;;5023459;28;20124;-66
2022/03/06 06:16:36;;;;;;;0.00;0.00;;;0.10;99.90;;;;;;5022328;28;20107;-65
2022/03/06 06:19:02;;;;;;;0.00;0.00;;;0.00;99.90;;;;;;5022958;28;20099;-66
2022/03/06 06:21:28;;;;;;;0.00;0.00;;;0.10;99.90;;;;;;5038444;28;20053;-65
2022/03/06 06:23:54;;;;;;;0.00;0.00;;;0.10;99.90;;;;;;5022685;28;20065;-65
2022/03/06 06:26:20;;;;;;;0.00;0.00;;;0.00;99.90;;;;;;5021524;28;20053;-66
2022/03/06 06:28:47;;;;;;;0.00;0.00;;;0.00;99.90;;;;;;5021226;28;20145;-65
2022/03/06 06:31:13;;;;;;;0.00;0.00;;;0.00;99.90;;;;;;5022543;28;20046;-66
2022/03/06 06:33:38;;;;;;;0.00;0.00;;;1.40;99.90;;;;;;5022650;28;20056;-63
2022/03/06 06:36:04;;;;;;;0.00;0.00;;;0.00;99.90;;;;;;5022842;28;20049;-65
2022/03/06 06:38:30;;;;;;;0.00;0.00;;;0.00;99.90;;;;;;5038479;28;20124;-65
2022/03/06 06:40:56;;;;;;;0.00;0.00;;;0.00;99.90;;;;;;5022379;28;20448;-65
2022/03/06 06:43:21;;;;;;;0.00;0.00;;;0.00;99.90;;;;;;5022927;28;20516;-65
2022/03/06 06:45:47;;;;;;;0.00;0.00;;;0.00;99.90;;;;;;5021889;28;20511;-66
2022/03/06 06:48:13;;;;;;;0.00;0.00;;;0.00;99.90;;;;;;5023119;28;20191;-66
2022/03/06 06:50:39;;;;;;;0.00;0.00;;;0.00;99.90;;;;;;5022346;28;20076;-65
2022/03/06 06:53:05;;;;;;;0.00;0.00;;;0.00;99.90;;;;;;5022432;28;20037;-63
2022/03/06 06:55:30;;;;;;;0.00;0.00;;;0.10;99.90;;;;;;5021710;28;20057;-63
2022/03/06 06:57:56;;;;;;;0.00;0.00;;;0.10;99.90;;;;;;5022259;28;20459;-64
2022/03/06 07:00:22;;;;;;;0.00;0.00;;;0.10;99.90;;;;;;5022466;28;20534;-64
2022/03/06 07:02:47;;;;;;;0.00;0.00;;;0.10;99.90;;;;;;5031520;28;20057;-63
2022/03/06 07:05:14;;;;;;;0.00;0.00;;;0.10;99.90;;;;;;5023787;28;20135;-64
2022/03/06 07:07:39;;;;;;;0.00;0.00;;;0.10;99.90;;;;;;5022591;28;20045;-63
2022/03/06 07:10:06;;;;;;;0.00;0.00;;;0.20;99.90;;;;;;5022110;28;20135;-64
2022/03/06 07:12:40;;;;;;;0.00;0.00;;;0.20;99.90;;;;;;5026189;28;20120;-63
2022/03/06 07:15:06;;;;;;;0.00;0.00;;;0.20;99.90;;;;;;5025093;28;20045;-63
2022/03/06 07:17:31;;;;;;;0.00;0.00;;;0.30;99.90;;;;;;5025547;28;20045;-63
2022/03/06 07:19:57;;;;;;;0.00;0.00;;;0.30;99.90;;;;;;5025874;28;20052;-66
2022/03/06 07:22:22;;;;;;;0.00;0.00;;;0.30;99.90;;;;;;5026121;28;20052;-63
2022/03/06 07:24:48;;;;;;;0.00;0.00;;;0.40;99.90;;;;;;5025361;28;20045;-63
2022/03/06 07:27:14;;;;;;;0.00;0.00;;;0.50;99.90;;;;;;5026317;28;20029;-63
2022/03/06 07:29:39;;;;;;;0.00;0.00;;;0.50;99.90;;;;;;5025716;28;20053;-63
2022/03/06 07:32:05;;;;;;;0.00;0.00;;;0.60;99.90;;;;;;5025416;28;20554;-64
2022/03/06 07:34:31;;;;;;;0.00;0.00;;;0.70;99.90;;;;;;5024638;28;20169;-63
2022/03/06 07:36:56;;;;;;;0.00;0.00;;;1.10;99.90;;;;;;5025484;28;20060;-66
2022/03/06 07:39:22;;;;;;;0.00;0.00;;;0.70;99.90;;;;;;5025685;28;20060;-66
2022/03/06 07:41:48;;;;;;;0.00;0.00;;;0.80;99.90;;;;;;5025205;28;20128;-64
2022/03/06 07:44:13;;;;;;;0.00;0.00;;;0.80;99.90;;;;;;5026035;28;20075;-64
2022/03/06 07:46:39;;;;;;;0.00;0.00;;;0.90;99.90;;;;;;5024953;28;20676;-66
2022/03/06 07:49:04;;;;;;;0.00;0.00;;;0.90;99.90;;;;;;5025920;28;20053;-60
2022/03/06 07:51:30;;;;;;;0.00;0.00;;;0.90;99.90;;;;;;5025657;28;20041;-64
2022/03/06 07:53:56;;;;;;;0.00;0.00;;;0.90;99.90;;;;;;5025488;28;20052;-64
2022/03/06 07:56:21;;;;;;;0.00;0.00;;;1.00;99.90;;;;;;5024245;28;20124;-64
2022/03/06 07:58:47;;;;;;;0.00;0.00;;;1.10;99.90;;;;;;5025042;28;20045;-64
2022/03/06 08:01:13;;;;;;;0.00;0.00;;;1.10;99.90;;;;;;5024447;28;20041;-63
2022/03/06 08:03:38;;;;;;;0.00;0.00;;;1.10;99.90;;;;;;5034729;28;20626;-61
2022/03/06 08:06:04;;;;;;;0.00;0.00;;;1.10;99.90;;;;;;5025660;28;20037;-63
2022/03/06 08:08:29;;;;;;;0.00;0.00;;;1.10;99.90;;;;;;5025595;28;20427;-64
2022/03/06 08:10:55;;;;;;;0.00;0.00;;;1.20;99.90;;;;;;5024626;28;20357;-64
2022/03/06 08:13:21;;;;;;;0.00;0.00;;;1.20;99.90;;;;;;5025323;28;20041;-68
2022/03/06 08:15:46;;;;;;;0.00;0.00;;;-0.60;99.90;;;;;;5024195;28;20129;-65
2022/03/06 08:18:12;;;;;;;0.00;0.00;;;1.40;99.90;;;;;;5024723;28;20054;-64
2022/03/06 08:20:38;;;;;;;0.00;0.00;;;1.40;99.90;;;;;;5023664;28;20042;-65
2022/03/06 08:23:04;;;;;;;0.00;0.00;;;1.50;99.90;;;;;;5024447;28;20076;-64
2022/03/06 08:25:30;;;;;;;0.00;0.00;;;1.60;99.90;;;;;;5025048;28;20488;-64
2022/03/06 08:27:56;;;;;;;0.00;0.00;;;1.70;99.90;;;;;;5024596;28;20049;-65
2022/03/06 08:30:22;;;;;;;0.00;0.00;;;1.80;99.90;;;;;;5024599;28;20064;-64
2022/03/06 08:32:47;;;;;;;0.00;0.00;;;1.90;99.90;;;;;;5024672;28;20041;-63
2022/03/06 08:35:13;;;;;;;0.00;0.00;;;1.90;99.90;;;;;;5023291;28;20080;-63
2022/03/06 08:37:39;;;;;;;0.00;0.00;;;1.90;99.90;;;;;;5024812;28;20049;-63
2022/03/06 08:40:05;;;;;;;0.00;0.00;;;2.00;99.90;;;;;;5024709;28;20047;-63
2022/03/06 08:42:31;;;;;;;0.00;0.00;;;2.00;99.90;;;;;;5024438;28;20096;-64
2022/03/06 08:44:57;;;;;;;0.00;0.00;;;2.10;99.90;;;;;;5024406;28;20091;-63
2022/03/06 08:47:23;;;;;;;0.00;0.00;;;2.20;99.90;;;;;;5024143;28;20053;-62
2022/03/06 08:49:48;;;;;;;0.00;0.00;;;2.30;99.90;;;;;;5006556;28;20034;-63
2022/03/06 08:52:14;;;;;;;0.00;0.00;;;1.90;99.90;;;;;;5024119;28;20053;-63
2022/03/06 08:54:40;;;;;;;0.10;0.10;;;2.90;99.90;;;;;;5024272;28;20550;-64
2022/03/06 08:57:05;;;;;;;0.00;0.00;;;2.60;99.90;;;;;;5024372;28;20037;-63
2022/03/06 08:59:31;;;;;;;0.00;0.00;;;2.60;99.90;;;;;;5024357;28;20046;-63
2022/03/06 09:01:57;;;;;;;0.00;0.00;;;3.80;99.90;;;;;;5025964;28;20411;-62
2022/03/06 09:04:24;;;;;;;0.00;0.00;;;2.80;99.90;;;;;;5032271;28;20405;-63
2022/03/06 09:06:52;;;;;;;0.00;0.00;;;2.90;99.90;;;;;;5023821;28;20501;-63
2022/03/06 09:09:17;;;;;;;0.00;0.00;;;2.90;99.90;;;;;;5024374;28;20459;-63
2022/03/06 09:11:45;;;;;;;0.00;0.00;;;2.90;99.90;;;;;;5023791;28;20049;-63
2022/03/06 09:14:11;;;;;;;0.00;0.00;;;2.90;99.90;;;;;;5022995;28;20047;-63
2022/03/06 09:16:37;;;;;;;0.00;0.00;;;3.10;99.90;;;;;;5022807;28;20087;-63
2022/03/06 09:19:03;;;;;;;0.00;0.00;;;3.20;99.90;;;;;;5023976;28;20073;-62
2022/03/06 09:21:29;;;;;;;0.00;0.00;;;3.40;99.90;;;;;;5024115;28;20445;-63
2022/03/06 09:23:54;;;;;;;0.00;0.00;;;3.40;99.90;;;;;;5023130;28;20643;-63
2022/03/06 09:26:20;;;;;;;0.00;0.00;;;4.60;99.90;;;;;;5024048;28;20072;-63
2022/03/06 09:28:46;;;;;;;0.00;0.00;;;4.90;99.90;;;;;;5023422;28;20257;-63
2022/03/06 09:31:12;;;;;;;0.00;0.00;;;5.50;99.90;;;;;;5023551;28;20035;-63
2022/03/06 09:33:37;;;;;;;0.00;0.00;;;6.20;99.90;;;;;;5022919;28;20050;-62
2022/03/06 09:36:04;;;;;;;0.00;0.00;;;6.90;99.90;;;;;;5023357;28;20049;-63
2022/03/06 09:38:29;;;;;;;0.00;0.00;;;7.30;99.90;;;;;;5022481;28;20045;-63
2022/03/06 09:41:03;;;;;;;0.00;0.00;;;7.80;99.90;;;;;;5022822;28;20037;-63
2022/03/06 09:43:29;;;;;;;0.00;0.00;;;8.00;99.90;;;;;;5022290;28;20049;-63
2022/03/06 09:46:04;;;;;;;0.00;0.00;;;8.00;99.90;;;;;;5022284;28;20053;-64
2022/03/06 09:48:31;;;;;;;0.00;0.00;;;8.30;99.90;;;;;;5021813;28;20061;-63
2022/03/06 09:50:57;;;;;;;0.00;0.00;;;8.30;99.90;;;;;;5022948;28;20132;-63
2022/03/06 09:53:23;;;;;;;0.00;0.00;;;8.60;99.90;;;;;;5023490;28;20041;-62
2022/03/06 09:55:49;;;;;;;0.00;0.00;;;9.40;99.90;;;;;;5022469;28;20107;-62
2022/03/06 09:58:15;;;;;;;0.00;0.00;;;9.10;99.90;;;;;;5023279;28;20048;-62
2022/03/06 10:00:41;;;;;;;0.00;0.00;;;8.70;99.90;;;;;;5020878;28;20480;-61
2022/03/06 10:03:07;;;;;;;0.00;0.00;;;8.70;99.90;;;;;;5034030;28;20057;-57
2022/03/06 10:05:37;;;;;;;0.00;0.00;;;8.80;99.90;;;;;;5023224;28;20041;-57
2022/03/06 10:08:22;;;;;;;0.00;0.00;;;9.40;99.90;;;;;;5023265;28;20083;-56
2022/03/06 10:11:09;;;;;;;0.00;0.00;;;9.90;99.90;;;;;;5021122;28;20136;-62
2022/03/06 10:13:35;;;;;;;0.00;0.00;;;10.00;99.90;;;;;;5022830;28;20038;-63
2022/03/06 10:16:15;;;;;;;0.00;0.00;;;10.30;99.90;;;;;;5020678;28;20042;-64
2022/03/06 10:18:48;;;;;;;0.00;0.00;;;10.40;99.90;;;;;;5022782;28;20045;-63
2022/03/06 10:21:15;;;;;;;0.00;0.00;;;10.70;99.90;;;;;;5023128;28;20038;-63
2022/03/06 10:23:41;;;;;;;0.00;0.00;;;10.80;99.90;;;;;;5022167;28;20447;-63
2022/03/06 10:26:13;;;;;;;0.00;0.00;;;10.40;99.90;;;;;;5023095;28;20033;-63
2022/03/06 10:29:04;;;;;;;0.00;0.00;;;10.40;99.90;;;;;;5022818;28;20124;-62
2022/03/06 10:31:32;;;;;;;0.00;0.00;;;10.60;99.90;;;;;;5017309;28;20057;-65
2022/03/06 10:34:05;;;;;;;0.00;0.00;;;10.80;99.90;;;;;;5022458;28;20056;-63
2022/03/06 10:36:32;;;;;;;0.00;0.00;;;10.50;99.90;;;;;;5023259;28;20132;-63
2022/03/06 10:38:58;;;;;;;0.00;0.00;;;10.50;99.90;;;;;;5022436;28;20037;-63
2022/03/06 10:41:34;;;;;;;0.00;0.00;;;10.50;99.90;;;;;;5022777;28;20630;-63
2022/03/06 10:44:00;;;;;;;0.00;0.00;;;10.50;99.90;;;;;;5005518;28;20057;-62
2022/03/06 10:46:26;;;;;;;0.00;0.00;;;10.10;99.90;;;;;;5006154;28;20056;-63
2022/03/06 10:48:56;;;;;;;0.00;0.00;;;9.70;99.90;;;;;;5026637;28;20048;-63
2022/03/06 10:51:22;;;;;;;0.00;0.00;;;9.50;99.90;;;;;;5026475;28;20052;-63
2022/03/06 10:53:57;;;;;;;0.00;0.00;;;8.90;99.90;;;;;;5026313;28;20045;-63
2022/03/06 10:56:24;;;;;;;0.00;0.00;;;9.20;99.90;;;;;;5026391;28;20047;-63
2022/03/06 10:58:50;;;;;;;0.00;0.00;;;9.20;99.90;;;;;;5026144;28;20134;-62
2022/03/06 11:01:16;;;;;;;0.00;0.00;;;9.40;99.90;;;;;;5027510;28;20045;-63
2022/03/06 11:03:42;;;;;;;0.00;0.00;;;9.90;99.90;;;;;;5035165;28;20210;-62
2022/03/06 11:06:10;;;;;;;0.00;0.00;;;10.00;99.90;;;;;;5026189;28;20057;-63
2022/03/06 11:08:37;;;;;;;0.13;0.10;;;9.90;99.90;;;;;;5026301;28;20049;-63
2022/03/06 11:11:07;;;;;;;0.00;0.00;;;9.80;99.90;;;;;;5026501;28;20056;-63
2022/03/06 11:13:34;;;;;;;0.00;0.00;;;10.20;99.90;;;;;;5026338;28;20045;-63
2022/03/06 11:16:01;;;;;;;0.00;0.00;;;10.30;99.90;;;;;;5025241;28;20071;-63
2022/03/06 11:18:28;;;;;;;0.00;0.00;;;10.50;99.90;;;;;;5026224;28;20491;-63
2022/03/06 11:20:55;;;;;;;0.00;0.00;;;10.70;99.90;;;;;;5025319;28;20045;-63
2022/03/06 11:23:47;;;;;;;0.00;0.00;;;10.70;99.90;;;;;;5024710;28;20129;-63
2022/03/06 11:26:12;;;;;;;0.00;0.00;;;11.10;99.90;;;;;;5024260;28;20052;-63
2022/03/06 11:29:23;;;;;;;0.00;0.00;;;11.30;99.90;;;;;;5025985;28;20686;-64
2022/03/06 11:31:52;;;;;;;0.00;0.00;;;10.70;99.90;;;;;;5025033;28;20053;-63
2022/03/06 11:34:40;;;;;;;0.00;0.00;;;10.90;99.90;;;;;;5025981;28;20053;-63
2022/03/06 11:37:11;;;;;;;0.00;0.00;;;11.40;99.90;;;;;;5041237;28;20561;-62
2022/03/06 11:39:38;;;;;;;0.00;0.00;;;11.10;99.90;;;;;;5025612;28;20053;-63
2022/03/06 11:42:06;;;;;;;0.00;0.00;;;10.80;99.90;;;;;;5024657;28;20056;-63
2022/03/06 11:44:37;;;;;;;0.00;0.00;;;10.40;99.90;;;;;;5024477;28;20096;-63
2022/03/06 11:47:18;;;;;;;0.10;0.10;;;10.20;99.90;;;;;;5025297;28;20095;-63
2022/03/06 11:49:56;;;;;;;0.00;0.00;;;10.30;99.90;;;;;;5024931;28;20052;-62
2022/03/06 11:52:34;;;;;;;0.00;0.00;;;10.70;99.90;;;;;;5025618;28;20042;-63
2022/03/06 11:55:01;;;;;;;0.00;0.00;;;10.70;99.90;;;;;;5025190;28;20037;-65
2022/03/06 11:57:38;;;;;;;0.00;0.00;;;10.80;99.90;;;;;;5024489;28;20041;-64
2022/03/06 12:00:13;;;;;;;0.00;0.00;;;10.50;99.90;;;;;;5024949;28;20534;-64
2022/03/06 12:02:48;;;;;;;0.00;0.00;;;10.80;99.90;;;;;;5034042;28;20186;-64
2022/03/06 12:05:16;;;;;;;;;;;10.90;99.90;;;;;;5026695;28;20049;-63
2022/03/06 12:07:44;;;;;;;0.00;0.00;;;10.90;99.90;;;;;;5024964;28;19921;-63
2022/03/06 12:10:11;;;;;;;0.00;0.00;;;10.70;99.90;;;;;;5025428;28;20476;-65
2022/03/06 12:12:37;;;;;;;0.00;0.00;;;10.50;99.90;;;;;;5023637;28;20128;-64
2022/03/06 12:15:23;;;;;;;0.00;0.00;;;10.20;99.90;;;;;;5024537;28;20052;-63
2022/03/06 12:17:49;;;;;;;0.00;0.00;;;9.90;99.90;;;;;;5024606;28;20076;-63
2022/03/06 12:20:23;;;;;;;0.00;0.00;;;9.90;99.90;;;;;;5023854;28;20472;-64
2022/03/06 12:22:54;;;;;;;0.00;0.00;;;10.00;99.90;;;;;;5023339;28;20045;-64
2022/03/06 12:25:29;;;;;;;0.00;0.00;;;10.10;99.90;;;;;;5025139;28;20408;-64
2022/03/06 12:28:00;;;;;;;0.00;0.00;;;10.20;99.90;;;;;;5024283;28;20069;-64
2022/03/06 12:30:26;;;;;;;0.00;0.00;;;10.00;99.90;;;;;;5024176;28;20147;-63
2022/03/06 12:32:52;;;;;;;0.00;0.00;;;9.60;99.90;;;;;;5024202;28;20145;-63
2022/03/06 12:35:22;;;;;;;0.00;0.00;;;9.30;99.90;;;;;;5024594;28;20755;-63
2022/03/06 12:38:00;;;;;;;0.00;0.00;;;9.20;99.90;;;;;;5024407;28;20049;-63
2022/03/06 12:40:28;;;;;;;0.00;0.00;;;9.30;99.90;;;;;;5008283;28;20115;-64
2022/03/06 12:43:06;;;;;;;0.00;0.00;;;9.50;99.90;;;;;;5023715;28;20045;-63
2022/03/06 12:45:33;;;;;;;0.00;0.00;;;9.50;99.90;;;;;;5024310;28;20056;-63
2022/03/06 12:47:59;;;;;;;0.00;0.00;;;9.70;99.90;;;;;;5024160;28;20049;-63
2022/03/06 12:50:25;;;;;;;0.00;0.00;;;9.40;99.90;;;;;;5024100;28;20067;-63
2022/03/06 12:52:54;;;;;;;0.00;0.00;;;9.30;99.90;;;;;;5006334;28;20045;-63
2022/03/06 12:55:21;;;;;;;0.00;0.00;;;9.30;99.90;;;;;;5023308;28;20049;-63